createdAt,value
2017-07-12T00:00:43.704Z,0
2017-07-12T00:01:43.684Z,0
2017-07-12T00:02:43.961Z,0
2017-07-12T00:03:43.035Z,0
2017-07-12T00:04:43.934Z,0
2017-07-12T00:05:43.907Z,0
2017-07-12T00:06:43.889Z,0
2017-07-12T00:07:42.959Z,0
2017-07-12T00:08:43.843Z,0
2017-07-12T00:09:43.822Z,0
2017-07-12T00:10:43.196Z,0
2017-07-12T00:11:43.479Z,0
2017-07-12T00:12:43.766Z,0
2017-07-12T00:13:43.466Z,0
2017-07-12T00:14:43.199Z,0
2017-07-12T00:15:43.396Z,0
2017-07-12T00:16:43.686Z,0
2017-07-12T00:17:43.730Z,0
2017-07-12T00:18:43.637Z,0
2017-07-12T00:19:43.316Z,0
2017-07-12T00:20:43.356Z,0
2017-07-12T00:21:43.588Z,0
2017-07-12T00:22:42.644Z,0
2017-07-12T00:23:43.231Z,0
2017-07-12T00:24:43.515Z,0
2017-07-12T00:25:43.199Z,0
2017-07-12T00:26:43.186Z,0
2017-07-12T00:27:43.458Z,0
2017-07-12T00:28:43.134Z,0
2017-07-12T00:29:43.122Z,0
2017-07-12T00:30:43.096Z,0
2017-07-12T00:31:43.075Z,0
2017-07-12T00:32:43.358Z,0
2017-07-12T00:33:43.334Z,0
2017-07-12T00:34:43.012Z,0
2017-07-12T00:35:43.323Z,0
2017-07-12T00:36:42.677Z,0
2017-07-12T00:37:42.650Z,0
2017-07-12T00:38:42.956Z,0
2017-07-12T00:39:42.610Z,0
2017-07-12T00:40:42.591Z,0
2017-07-12T00:41:42.870Z,0
2017-07-12T00:42:43.152Z,0
2017-07-12T00:43:42.527Z,0
2017-07-12T00:44:42.509Z,0
2017-07-12T00:45:42.791Z,0
2017-07-12T00:46:42.468Z,0
2017-07-12T00:47:42.798Z,0
2017-07-12T00:48:42.426Z,0
2017-07-12T00:49:42.718Z,0
2017-07-12T00:50:42.692Z,0
2017-07-12T00:51:42.723Z,0
2017-07-12T00:52:42.654Z,0
2017-07-12T00:53:42.629Z,0
2017-07-12T00:54:42.605Z,0
2017-07-12T00:55:42.592Z,0
2017-07-12T00:56:42.575Z,0
2017-07-12T00:57:42.252Z,0
2017-07-12T00:58:42.527Z,0
2017-07-12T00:59:42.516Z,0
2017-07-12T01:00:42.789Z,0
2017-07-12T01:01:42.779Z,0
2017-07-12T01:02:42.455Z,0
2017-07-12T01:03:41.819Z,0
2017-07-12T01:04:42.435Z,0
2017-07-12T01:05:42.083Z,0
2017-07-12T01:06:42.679Z,0
2017-07-12T01:07:42.353Z,0
2017-07-12T01:08:42.631Z,0
2017-07-12T01:09:42.623Z,0
2017-07-12T01:10:42.299Z,0
2017-07-12T01:11:42.576Z,0
2017-07-12T01:12:42.558Z,0
2017-07-12T01:13:42.229Z,0
2017-07-12T01:14:42.209Z,0
2017-07-12T01:15:42.192Z,0
2017-07-12T01:16:42.478Z,0
2017-07-12T01:17:41.841Z,0
2017-07-12T01:18:41.822Z,0
2017-07-12T01:19:41.822Z,0
2017-07-12T01:20:42.393Z,0
2017-07-12T01:21:42.072Z,0
2017-07-12T01:22:41.437Z,0
2017-07-12T01:23:42.025Z,0
2017-07-12T01:24:42.327Z,0
2017-07-12T01:25:41.991Z,0
2017-07-12T01:26:41.968Z,0
2017-07-12T01:27:41.643Z,0
2017-07-12T01:28:41.931Z,0
2017-07-12T01:29:42.214Z,0
2017-07-12T01:30:42.190Z,0
2017-07-12T01:31:42.233Z,0
2017-07-12T01:32:42.153Z,0
2017-07-12T01:33:42.136Z,0
2017-07-12T01:34:41.810Z,0
2017-07-12T01:35:41.857Z,0
2017-07-12T01:36:41.780Z,0
2017-07-12T01:37:42.051Z,0
2017-07-12T01:38:41.732Z,0
2017-07-12T01:39:42.017Z,0
2017-07-12T01:40:41.690Z,0
2017-07-12T01:41:41.670Z,0
2017-07-12T01:42:41.950Z,0
2017-07-12T01:43:41.632Z,0
2017-07-12T01:44:41.907Z,0
2017-07-12T01:45:41.894Z,0
2017-07-12T01:46:41.872Z,0
2017-07-12T01:47:41.848Z,0
2017-07-12T01:48:41.531Z,0
2017-07-12T01:49:41.809Z,0
2017-07-12T01:50:41.485Z,0
2017-07-12T01:51:41.470Z,0
2017-07-12T01:52:41.762Z,0
2017-07-12T01:53:41.425Z,0
2017-07-12T01:54:41.711Z,0
2017-07-12T01:55:41.701Z,0
2017-07-12T01:56:41.673Z,0
2017-07-12T01:57:41.651Z,0
2017-07-12T01:58:41.628Z,0
2017-07-12T01:59:41.306Z,0
2017-07-12T02:00:40.985Z,0
2017-07-12T02:01:41.269Z,0
2017-07-12T02:02:41.552Z,0
2017-07-12T02:03:41.524Z,0
2017-07-12T02:04:41.512Z,0
2017-07-12T02:05:41.495Z,0
2017-07-12T02:06:41.471Z,0
2017-07-12T02:07:41.146Z,0
2017-07-12T02:08:41.430Z,0
2017-07-12T02:09:41.414Z,0
2017-07-12T02:10:41.382Z,0
2017-07-12T02:11:41.368Z,0
2017-07-12T02:12:41.346Z,0
2017-07-12T02:13:41.326Z,0
2017-07-12T02:14:41.305Z,0
2017-07-12T02:15:40.983Z,0
2017-07-12T02:16:41.265Z,0
2017-07-12T02:17:41.244Z,0
2017-07-12T02:18:41.218Z,0
2017-07-12T02:19:40.901Z,0
2017-07-12T02:20:40.929Z,0
2017-07-12T02:21:41.167Z,0
2017-07-12T02:22:40.229Z,0
2017-07-12T02:23:41.117Z,0
2017-07-12T02:24:41.116Z,0
2017-07-12T02:25:41.088Z,0
2017-07-12T02:26:41.070Z,0
2017-07-12T02:27:40.738Z,0
2017-07-12T02:28:40.720Z,0
2017-07-12T02:29:40.699Z,0
2017-07-12T02:30:40.673Z,0
2017-07-12T02:31:40.349Z,0
2017-07-12T02:32:40.639Z,0
2017-07-12T02:33:40.614Z,0
2017-07-12T02:34:40.897Z,0
2017-07-12T02:35:40.577Z,0
2017-07-12T02:36:40.248Z,0
2017-07-12T02:37:40.538Z,0
2017-07-12T02:38:40.209Z,0
2017-07-12T02:39:40.803Z,0
2017-07-12T02:40:40.476Z,0
2017-07-12T02:41:40.754Z,0
2017-07-12T02:42:40.436Z,0
2017-07-12T02:43:40.414Z,0
2017-07-12T02:44:40.388Z,0
2017-07-12T02:45:40.064Z,0
2017-07-12T02:46:40.659Z,0
2017-07-12T02:47:40.330Z,0
2017-07-12T02:48:40.004Z,0
2017-07-12T02:49:40.291Z,0
2017-07-12T02:50:40.577Z,0
2017-07-12T02:51:40.249Z,0
2017-07-12T02:52:40.233Z,0
2017-07-12T02:53:40.208Z,0
2017-07-12T02:54:40.190Z,0
2017-07-12T02:55:40.172Z,0
2017-07-12T02:56:40.149Z,0
2017-07-12T02:57:40.123Z,0
2017-07-12T02:58:40.410Z,0
2017-07-12T02:59:40.143Z,0
2017-07-12T03:00:40.366Z,0
2017-07-12T03:01:40.059Z,0
2017-07-12T03:02:39.415Z,0
2017-07-12T03:03:40.318Z,0
2017-07-12T03:04:39.980Z,0
2017-07-12T03:05:39.351Z,0
2017-07-12T03:06:39.635Z,0
2017-07-12T03:07:40.228Z,0
2017-07-12T03:08:39.905Z,0
2017-07-12T03:09:40.199Z,0
2017-07-12T03:10:40.175Z,0
2017-07-12T03:11:39.539Z,0
2017-07-12T03:12:40.125Z,0
2017-07-12T03:13:39.495Z,0
2017-07-12T03:14:40.082Z,0
2017-07-12T03:15:40.063Z,0
2017-07-12T03:16:40.047Z,0
2017-07-12T03:17:40.021Z,0
2017-07-12T03:18:39.696Z,0
2017-07-12T03:19:39.673Z,0
2017-07-12T03:20:39.356Z,0
2017-07-12T03:21:39.941Z,0
2017-07-12T03:22:38.700Z,0
2017-07-12T03:23:39.289Z,0
2017-07-12T03:24:39.636Z,0
2017-07-12T03:25:39.869Z,5
2017-07-12T03:26:39.835Z,5
2017-07-12T03:27:39.513Z,5
2017-07-12T03:28:39.803Z,5
2017-07-12T03:29:39.783Z,5
2017-07-12T03:30:39.142Z,5
2017-07-12T03:31:39.732Z,5
2017-07-12T03:32:39.712Z,5
2017-07-12T03:33:39.087Z,5
2017-07-12T03:34:39.367Z,5
2017-07-12T03:35:39.348Z,5
2017-07-12T03:36:39.631Z,5
2017-07-12T03:37:39.000Z,5
2017-07-12T03:38:39.595Z,5
2017-07-12T03:39:39.261Z,5
2017-07-12T03:40:38.635Z,5
2017-07-12T03:41:39.220Z,5
2017-07-12T03:42:39.205Z,5
2017-07-12T03:43:39.183Z,10
2017-07-12T03:44:38.860Z,10
2017-07-12T03:45:38.531Z,10
2017-07-12T03:46:39.422Z,10
2017-07-12T03:47:39.103Z,10
2017-07-12T03:48:39.383Z,10
2017-07-12T03:49:39.369Z,15
2017-07-12T03:50:39.345Z,20
2017-07-12T03:51:39.023Z,25
2017-07-12T03:52:39.302Z,30
2017-07-12T03:53:38.976Z,35
2017-07-12T03:54:39.264Z,45
2017-07-12T03:55:39.235Z,55
2017-07-12T03:56:38.919Z,70
2017-07-12T03:57:39.195Z,80
2017-07-12T03:58:39.176Z,85
2017-07-12T03:59:39.217Z,85
2017-07-12T04:00:39.140Z,75
2017-07-12T04:01:38.818Z,70
2017-07-12T04:02:38.789Z,60
2017-07-12T04:03:38.771Z,60
2017-07-12T04:04:39.058Z,50
2017-07-12T04:05:38.734Z,45
2017-07-12T04:06:38.721Z,35
2017-07-12T04:07:38.687Z,30
2017-07-12T04:08:38.974Z,25
2017-07-12T04:09:38.954Z,25
2017-07-12T04:10:38.026Z,20
2017-07-12T04:11:38.910Z,20
2017-07-12T04:12:38.895Z,20
2017-07-12T04:13:38.570Z,20
2017-07-12T04:14:38.851Z,20
2017-07-12T04:15:38.528Z,20
2017-07-12T04:16:38.205Z,15
2017-07-12T04:17:38.791Z,15
2017-07-12T04:18:38.464Z,15
2017-07-12T04:19:38.749Z,15
2017-07-12T04:20:38.732Z,15
2017-07-12T04:21:38.713Z,15
2017-07-12T04:22:38.074Z,15
2017-07-12T04:23:37.951Z,10
2017-07-12T04:24:38.041Z,10
2017-07-12T04:25:38.623Z,10
2017-07-12T04:26:38.306Z,10
2017-07-12T04:27:37.670Z,10
2017-07-12T04:28:38.561Z,10
2017-07-12T04:29:38.246Z,10
2017-07-12T04:30:37.910Z,10
2017-07-12T04:31:38.199Z,10
2017-07-12T04:32:37.872Z,10
2017-07-12T04:33:38.157Z,10
2017-07-12T04:34:37.829Z,10
2017-07-12T04:35:37.814Z,15
2017-07-12T04:36:37.482Z,15
2017-07-12T04:37:37.460Z,15
2017-07-12T04:38:38.047Z,20
2017-07-12T04:39:38.025Z,30
2017-07-12T04:40:37.710Z,40
2017-07-12T04:41:38.039Z,35
2017-07-12T04:42:37.363Z,35
2017-07-12T04:43:38.247Z,40
2017-07-12T04:44:37.924Z,45
2017-07-12T04:45:37.967Z,50
2017-07-12T04:46:37.891Z,55
2017-07-12T04:47:37.559Z,55
2017-07-12T04:48:37.842Z,60
2017-07-12T04:49:37.821Z,60
2017-07-12T04:50:37.807Z,60
2017-07-12T04:51:37.792Z,60
2017-07-12T04:52:38.067Z,60
2017-07-12T04:53:38.041Z,60
2017-07-12T04:54:38.025Z,60
2017-07-12T04:55:37.998Z,65
2017-07-12T04:56:37.674Z,65
2017-07-12T04:57:37.953Z,55
2017-07-12T04:58:37.334Z,50
2017-07-12T04:59:37.718Z,45
2017-07-12T05:00:38.350Z,45
2017-07-12T05:01:37.879Z,55
2017-07-12T05:02:37.592Z,65
2017-07-12T05:03:37.529Z,70
2017-07-12T05:04:37.810Z,70
2017-07-12T05:05:37.492Z,65
2017-07-12T05:06:37.472Z,60
2017-07-12T05:07:37.448Z,55
2017-07-12T05:08:37.423Z,50
2017-07-12T05:09:37.708Z,40
2017-07-12T05:10:37.393Z,30
2017-07-12T05:11:37.363Z,20
2017-07-12T05:12:37.646Z,25
2017-07-12T05:13:37.622Z,35
2017-07-12T05:14:37.300Z,45
2017-07-12T05:15:37.278Z,65
2017-07-12T05:16:37.582Z,75
2017-07-12T05:17:37.566Z,80
2017-07-12T05:18:37.534Z,80
2017-07-12T05:19:37.198Z,80
2017-07-12T05:20:37.171Z,80
2017-07-12T05:21:37.474Z,70
2017-07-12T05:22:36.214Z,65
2017-07-12T05:23:37.104Z,75
2017-07-12T05:24:37.398Z,80
2017-07-12T05:25:37.076Z,80
2017-07-12T05:26:36.739Z,90
2017-07-12T05:27:37.028Z,105
2017-07-12T05:28:37.007Z,100
2017-07-12T05:29:37.288Z,100
2017-07-12T05:30:36.660Z,105
2017-07-12T05:31:36.640Z,110
2017-07-12T05:32:37.225Z,120
2017-07-12T05:33:36.928Z,130
2017-07-12T05:34:36.883Z,125
2017-07-12T05:35:37.173Z,130
2017-07-12T05:36:36.237Z,145
2017-07-12T05:37:37.169Z,170
2017-07-12T05:38:37.102Z,195
2017-07-12T05:39:36.778Z,205
2017-07-12T05:40:36.756Z,205
2017-07-12T05:41:37.039Z,200
2017-07-12T05:42:36.414Z,195
2017-07-12T05:43:37.002Z,190
2017-07-12T05:44:36.976Z,180
2017-07-12T05:45:36.654Z,180
2017-07-12T05:46:36.941Z,175
2017-07-12T05:47:36.922Z,170
2017-07-12T05:48:36.599Z,165
2017-07-12T05:49:36.875Z,160
2017-07-12T05:50:36.862Z,150
2017-07-12T05:51:36.533Z,140
2017-07-12T05:52:36.814Z,135
2017-07-12T05:53:36.794Z,145
2017-07-12T05:54:36.472Z,160
2017-07-12T05:55:36.452Z,180
2017-07-12T05:56:36.738Z,210
2017-07-12T05:57:36.719Z,245
2017-07-12T05:58:36.091Z,275
2017-07-12T05:59:36.370Z,290
2017-07-12T06:00:36.658Z,310
2017-07-12T06:01:37.518Z,350
2017-07-12T06:02:37.519Z,360
2017-07-12T06:03:37.597Z,330
2017-07-12T06:04:36.409Z,305
2017-07-12T06:05:38.143Z,305
2017-07-12T06:06:35.921Z,310
2017-07-12T06:07:36.520Z,335
2017-07-12T06:08:36.494Z,350
2017-07-12T06:09:36.476Z,375
2017-07-12T06:10:36.462Z,385
2017-07-12T06:11:36.126Z,425
2017-07-12T06:12:36.387Z,485
2017-07-12T06:13:36.092Z,480
2017-07-12T06:14:36.968Z,435
2017-07-12T06:15:36.359Z,410
2017-07-12T06:16:35.734Z,390
2017-07-12T06:17:35.402Z,345
2017-07-12T06:18:36.954Z,310
2017-07-12T06:19:36.806Z,310
2017-07-12T06:20:35.975Z,320
2017-07-12T06:21:36.178Z,305
2017-07-12T06:22:35.919Z,315
2017-07-12T06:23:35.895Z,320
2017-07-12T06:24:36.092Z,320
2017-07-12T06:25:35.859Z,320
2017-07-12T06:26:35.844Z,315
2017-07-12T06:27:35.817Z,315
2017-07-12T06:28:35.493Z,310
2017-07-12T06:29:36.636Z,285
2017-07-12T06:30:36.068Z,300
2017-07-12T06:31:35.743Z,300
2017-07-12T06:32:35.729Z,305
2017-07-12T06:33:35.400Z,330
2017-07-12T06:34:35.680Z,325
2017-07-12T06:35:35.369Z,265
2017-07-12T06:36:35.349Z,265
2017-07-12T06:37:35.925Z,300
2017-07-12T06:38:35.305Z,325
2017-07-12T06:39:35.586Z,330
2017-07-12T06:40:37.202Z,350
2017-07-12T06:41:36.731Z,360
2017-07-12T06:42:36.617Z,390
2017-07-12T06:43:35.823Z,420
2017-07-12T06:44:35.491Z,440
2017-07-12T06:45:36.468Z,445
2017-07-12T06:46:37.200Z,435
2017-07-12T06:47:35.437Z,375
2017-07-12T06:48:35.410Z,280
2017-07-12T06:49:35.700Z,310
2017-07-12T06:50:35.378Z,330
2017-07-12T06:51:35.656Z,355
2017-07-12T06:52:35.338Z,365
2017-07-12T06:53:35.322Z,355
2017-07-12T06:54:35.596Z,340
2017-07-12T06:55:35.283Z,325
2017-07-12T06:56:35.260Z,305
2017-07-12T06:57:35.282Z,270
2017-07-12T06:58:34.918Z,235
2017-07-12T06:59:35.204Z,225
2017-07-12T07:00:35.185Z,215
2017-07-12T07:01:35.469Z,215
2017-07-12T07:02:35.042Z,230
2017-07-12T07:03:34.718Z,245
2017-07-12T07:04:35.989Z,265
2017-07-12T07:05:36.271Z,280
2017-07-12T07:06:35.370Z,265
2017-07-12T07:07:34.744Z,250
2017-07-12T07:08:35.026Z,240
2017-07-12T07:09:35.154Z,240
2017-07-12T07:10:35.599Z,260
2017-07-12T07:11:34.968Z,285
2017-07-12T07:12:35.612Z,300
2017-07-12T07:13:35.232Z,305
2017-07-12T07:14:35.210Z,330
2017-07-12T07:15:35.220Z,360
2017-07-12T07:16:34.876Z,385
2017-07-12T07:17:34.932Z,400
2017-07-12T07:18:34.845Z,430
2017-07-12T07:19:34.529Z,450
2017-07-12T07:20:34.840Z,460
2017-07-12T07:21:34.792Z,470
2017-07-12T07:22:34.754Z,465
2017-07-12T07:23:34.730Z,460
2017-07-12T07:24:35.028Z,455
2017-07-12T07:25:34.694Z,445
2017-07-12T07:26:34.068Z,430
2017-07-12T07:27:34.354Z,425
2017-07-12T07:28:34.945Z,450
2017-07-12T07:29:34.313Z,485
2017-07-12T07:30:34.913Z,505
2017-07-12T07:31:33.975Z,485
2017-07-12T07:32:34.562Z,435
2017-07-12T07:33:34.853Z,400
2017-07-12T07:34:34.839Z,395
2017-07-12T07:35:34.514Z,430
2017-07-12T07:36:35.573Z,465
2017-07-12T07:37:34.829Z,495
2017-07-12T07:38:34.751Z,515
2017-07-12T07:39:34.735Z,545
2017-07-12T07:40:34.881Z,520
2017-07-12T07:41:34.604Z,550
2017-07-12T07:42:34.729Z,575
2017-07-12T07:43:34.352Z,615
2017-07-12T07:44:34.757Z,630
2017-07-12T07:45:34.624Z,490
2017-07-12T07:46:34.295Z,455
2017-07-12T07:47:33.973Z,450
2017-07-12T07:48:34.560Z,395
2017-07-12T07:49:33.937Z,360
2017-07-12T07:50:33.917Z,325
2017-07-12T07:51:34.509Z,280
2017-07-12T07:52:34.506Z,210
2017-07-12T07:53:34.171Z,225
2017-07-12T07:54:34.624Z,205
2017-07-12T07:55:34.437Z,235
2017-07-12T07:56:34.044Z,225
2017-07-12T07:57:34.227Z,225
2017-07-12T07:58:35.328Z,240
2017-07-12T07:59:34.109Z,265
2017-07-12T08:00:33.814Z,265
2017-07-12T08:01:33.898Z,250
2017-07-12T08:02:33.722Z,280
2017-07-12T08:03:34.297Z,295
2017-07-12T08:04:34.267Z,365
2017-07-12T08:05:33.939Z,495
2017-07-12T08:06:34.223Z,595
2017-07-12T08:07:33.957Z,615
2017-07-12T08:08:34.621Z,630
2017-07-12T08:09:33.865Z,605
2017-07-12T08:10:34.491Z,545
2017-07-12T08:11:33.525Z,530
2017-07-12T08:12:35.030Z,485
2017-07-12T08:13:34.279Z,440
2017-07-12T08:14:33.672Z,380
2017-07-12T08:15:33.440Z,310
2017-07-12T08:16:33.121Z,360
2017-07-12T08:17:33.713Z,400
2017-07-12T08:18:33.424Z,385
2017-07-12T08:19:33.800Z,385
2017-07-12T08:20:33.863Z,435
2017-07-12T08:21:33.638Z,420
2017-07-12T08:22:33.911Z,400
2017-07-12T08:23:33.600Z,395
2017-07-12T08:24:33.606Z,380
2017-07-12T08:25:33.564Z,390
2017-07-12T08:26:33.549Z,440
2017-07-12T08:27:34.144Z,515
2017-07-12T08:28:33.498Z,670
2017-07-12T08:29:33.487Z,785
2017-07-12T08:30:33.461Z,740
2017-07-12T08:31:33.449Z,625
2017-07-12T08:32:33.426Z,605
2017-07-12T08:33:33.408Z,680
2017-07-12T08:34:33.694Z,805
2017-07-12T08:35:33.364Z,945
2017-07-12T08:36:33.357Z,930
2017-07-12T08:37:33.331Z,735
2017-07-12T08:38:33.636Z,665
2017-07-12T08:39:33.591Z,600
2017-07-12T08:40:33.581Z,500
2017-07-12T08:41:33.257Z,415
2017-07-12T08:42:32.932Z,360
2017-07-12T08:43:33.213Z,340
2017-07-12T08:44:33.196Z,315
2017-07-12T08:45:33.481Z,295
2017-07-12T08:46:33.467Z,285
2017-07-12T08:47:33.143Z,280
2017-07-12T08:48:33.124Z,285
2017-07-12T08:49:33.476Z,300
2017-07-12T08:50:32.781Z,315
2017-07-12T08:51:33.426Z,340
2017-07-12T08:52:32.735Z,380
2017-07-12T08:53:33.024Z,440
2017-07-12T08:54:33.008Z,510
2017-07-12T08:55:33.301Z,540
2017-07-12T08:56:33.092Z,570
2017-07-12T08:57:33.262Z,600
2017-07-12T08:58:32.943Z,565
2017-07-12T08:59:32.917Z,505
2017-07-12T09:00:33.197Z,485
2017-07-12T09:01:32.935Z,450
2017-07-12T09:02:32.866Z,470
2017-07-12T09:03:32.529Z,505
2017-07-12T09:04:33.125Z,550
2017-07-12T09:05:33.569Z,605
2017-07-12T09:06:33.694Z,635
2017-07-12T09:07:33.843Z,600
2017-07-12T09:08:33.683Z,565
2017-07-12T09:09:33.066Z,545
2017-07-12T09:10:33.010Z,585
2017-07-12T09:11:32.388Z,580
2017-07-12T09:12:33.183Z,560
2017-07-12T09:13:32.954Z,565
2017-07-12T09:14:32.633Z,560
2017-07-12T09:15:32.318Z,620
2017-07-12T09:16:32.899Z,590
2017-07-12T09:17:32.579Z,475
2017-07-12T09:18:32.556Z,415
2017-07-12T09:19:32.844Z,390
2017-07-12T09:20:32.219Z,385
2017-07-12T09:21:32.501Z,390
2017-07-12T09:22:32.479Z,410
2017-07-12T09:23:32.769Z,385
2017-07-12T09:33:31.673Z,150
2017-07-12T09:34:31.953Z,140
2017-07-12T09:35:32.240Z,145
2017-07-12T09:36:32.526Z,135
2017-07-12T09:37:31.896Z,135
2017-07-12T09:38:32.487Z,130
2017-07-12T09:39:32.173Z,135
2017-07-12T09:40:32.445Z,135
2017-07-12T09:41:32.551Z,130
2017-07-12T09:42:32.405Z,140
2017-07-12T09:43:32.084Z,145
2017-07-12T09:44:32.066Z,140
2017-07-12T09:45:32.354Z,145
2017-07-12T09:46:32.025Z,170
2017-07-12T09:47:32.007Z,215
2017-07-12T09:48:31.988Z,250
2017-07-12T09:49:31.988Z,235
2017-07-12T09:50:31.641Z,235
2017-07-12T09:51:32.229Z,290
2017-07-12T09:52:31.906Z,340
2017-07-12T09:53:32.197Z,415
2017-07-12T09:54:32.174Z,480
2017-07-12T09:55:32.159Z,475
2017-07-12T09:56:32.129Z,385
2017-07-12T09:57:31.806Z,360
2017-07-12T09:58:32.094Z,450
2017-07-12T09:59:32.071Z,540
2017-07-12T10:00:32.052Z,550
2017-07-12T10:01:32.093Z,500
2017-07-12T10:02:32.033Z,530
2017-07-12T10:03:31.703Z,525
2017-07-12T10:04:31.975Z,520
2017-07-12T10:05:31.363Z,555
2017-07-12T10:06:31.634Z,545
2017-07-12T10:07:31.926Z,460
2017-07-12T10:08:31.902Z,475
2017-07-12T10:09:31.581Z,475
2017-07-12T10:10:31.866Z,460
2017-07-12T10:11:33.991Z,480
2017-07-12T10:12:31.511Z,495
2017-07-12T10:13:32.085Z,535
2017-07-12T10:14:33.630Z,660
2017-07-12T10:15:31.938Z,720
2017-07-12T10:16:32.049Z,745
2017-07-12T10:17:31.525Z,785
2017-07-12T10:18:31.384Z,765
2017-07-12T10:19:31.079Z,655
2017-07-12T10:20:31.059Z,750
2017-07-12T10:21:31.342Z,555
2017-07-12T10:22:31.020Z,460
2017-07-12T10:23:30.998Z,455
2017-07-12T10:24:31.599Z,340
2017-07-12T10:25:31.278Z,310
2017-07-12T10:26:31.262Z,360
2017-07-12T10:27:31.234Z,355
2017-07-12T10:28:31.220Z,350
2017-07-12T10:29:30.906Z,475
2017-07-12T10:30:31.184Z,535
2017-07-12T10:31:31.164Z,640
2017-07-12T10:32:31.151Z,510
2017-07-12T10:33:31.125Z,670
2017-07-12T10:34:30.806Z,655
2017-07-12T10:35:31.392Z,615
2017-07-12T10:36:31.070Z,630
2017-07-12T10:37:31.050Z,645
2017-07-12T10:38:31.034Z,575
2017-07-12T10:39:30.709Z,500
2017-07-12T10:40:31.295Z,455
2017-07-12T10:41:30.978Z,420
2017-07-12T10:42:31.262Z,430
2017-07-12T10:43:31.244Z,375
2017-07-12T10:44:30.922Z,370
2017-07-12T10:45:30.291Z,355
2017-07-12T10:46:31.194Z,410
2017-07-12T10:47:31.172Z,430
2017-07-12T10:48:30.840Z,415
2017-07-12T10:49:31.128Z,580
2017-07-12T10:50:30.502Z,655
2017-07-12T10:51:30.480Z,600
2017-07-12T10:52:31.070Z,505
2017-07-12T10:53:31.065Z,510
2017-07-12T10:54:31.035Z,605
2017-07-12T10:55:31.016Z,515
2017-07-12T10:56:30.999Z,565
2017-07-12T10:57:30.372Z,510
2017-07-12T10:58:30.349Z,535
2017-07-12T10:59:30.636Z,565
2017-07-12T11:00:30.611Z,620
2017-07-12T11:01:30.599Z,570
2017-07-12T11:02:30.877Z,610
2017-07-12T11:03:30.871Z,610
2017-07-12T11:04:30.843Z,630
2017-07-12T11:05:30.821Z,660
2017-07-12T11:06:30.500Z,590
2017-07-12T11:07:30.485Z,655
2017-07-12T11:08:30.467Z,625
2017-07-12T11:09:30.525Z,635
2017-07-12T11:10:31.587Z,635
2017-07-12T11:11:30.099Z,655
2017-07-12T11:12:30.390Z,660
2017-07-12T11:13:30.705Z,650
2017-07-12T11:14:30.377Z,630
2017-07-12T11:15:30.029Z,575
2017-07-12T11:16:30.311Z,450
2017-07-12T11:17:30.599Z,485
2017-07-12T11:18:30.601Z,515
2017-07-12T11:19:30.258Z,525
2017-07-12T11:20:30.544Z,585
2017-07-12T11:21:30.219Z,610
2017-07-12T11:22:29.590Z,615
2017-07-12T11:23:30.176Z,605
2017-07-12T11:24:29.558Z,615
2017-07-12T11:25:29.840Z,675
2017-07-12T11:26:30.429Z,680
2017-07-12T11:27:30.116Z,670
2017-07-12T11:28:29.482Z,690
2017-07-12T11:29:29.771Z,680
2017-07-12T11:30:30.053Z,735
2017-07-12T11:31:30.029Z,770
2017-07-12T11:32:30.015Z,830
2017-07-12T11:33:29.999Z,720
2017-07-12T11:34:29.991Z,745
2017-07-12T11:35:30.272Z,680
2017-07-12T11:36:29.937Z,840
2017-07-12T11:37:29.932Z,980
2017-07-12T11:38:30.220Z,810
2017-07-12T11:39:28.970Z,900
2017-07-12T11:40:29.864Z,865
2017-07-12T11:41:30.151Z,815
2017-07-12T11:42:29.220Z,790
2017-07-12T11:43:30.218Z,540
2017-07-12T11:44:30.113Z,615
2017-07-12T11:45:30.085Z,715
2017-07-12T11:46:30.063Z,840
2017-07-12T11:47:29.751Z,765
2017-07-12T11:48:30.028Z,735
2017-07-12T11:49:30.007Z,720
2017-07-12T11:50:29.381Z,640
2017-07-12T11:51:29.362Z,585
2017-07-12T11:52:29.347Z,570
2017-07-12T11:53:29.957Z,575
2017-07-12T11:54:29.665Z,545
2017-07-12T11:55:29.916Z,725
2017-07-12T11:56:29.577Z,755
2017-07-12T11:57:29.570Z,780
2017-07-12T11:58:29.857Z,810
2017-07-12T11:59:29.832Z,760
2017-07-12T12:00:29.811Z,730
2017-07-12T12:01:29.198Z,625
2017-07-12T12:02:29.785Z,550
2017-07-12T12:03:29.455Z,505
2017-07-12T12:04:29.804Z,515
2017-07-12T12:05:29.420Z,480
2017-07-12T12:06:30.192Z,425
2017-07-12T12:07:31.379Z,450
2017-07-12T12:08:31.091Z,440
2017-07-12T12:09:29.653Z,415
2017-07-12T12:10:29.328Z,400
2017-07-12T12:11:29.010Z,400
2017-07-12T12:12:29.594Z,385
2017-07-12T12:13:29.287Z,380
2017-07-12T12:14:29.256Z,395
2017-07-12T12:15:29.584Z,425
2017-07-12T12:16:29.522Z,415
2017-07-12T12:17:29.507Z,370
2017-07-12T12:18:29.179Z,330
2017-07-12T12:19:28.556Z,325
2017-07-12T12:20:28.841Z,365
2017-07-12T12:21:28.831Z,375
2017-07-12T12:22:28.499Z,360
2017-07-12T12:23:28.481Z,310
2017-07-12T12:24:29.069Z,300
2017-07-12T12:25:29.358Z,300
2017-07-12T12:26:28.729Z,320
2017-07-12T12:27:29.319Z,385
2017-07-12T12:28:29.303Z,350
2017-07-12T12:29:28.984Z,270
2017-07-12T12:30:29.262Z,260
2017-07-12T12:31:28.643Z,305
2017-07-12T12:32:29.424Z,240
2017-07-12T12:33:29.210Z,190
2017-07-12T12:34:28.881Z,210
2017-07-12T12:35:28.862Z,365
2017-07-12T12:36:28.845Z,310
2017-07-12T12:37:29.168Z,125
2017-07-12T12:38:29.111Z,150
2017-07-12T12:39:28.791Z,145
2017-07-12T12:40:28.773Z,155
2017-07-12T12:41:27.835Z,170
2017-07-12T12:42:28.118Z,175
2017-07-12T12:43:29.016Z,175
2017-07-12T12:44:28.690Z,185
2017-07-12T12:45:28.671Z,200
2017-07-12T12:46:28.954Z,210
2017-07-12T12:47:28.107Z,220
2017-07-12T12:48:28.611Z,230
2017-07-12T12:49:28.289Z,260
2017-07-12T12:50:28.869Z,265
2017-07-12T12:51:28.567Z,255
2017-07-12T12:52:28.746Z,230
2017-07-12T12:53:28.511Z,240
2017-07-12T12:54:28.491Z,235
2017-07-12T12:55:28.765Z,280
2017-07-12T12:56:28.441Z,285
2017-07-12T12:57:28.422Z,315
2017-07-12T12:58:28.713Z,330
2017-07-12T12:59:28.693Z,365
2017-07-12T13:00:28.359Z,380
2017-07-12T13:01:28.665Z,405
2017-07-12T13:02:28.315Z,420
2017-07-12T13:03:28.598Z,400
2017-07-12T13:04:27.969Z,350
2017-07-12T13:05:28.252Z,420
2017-07-12T13:06:28.536Z,425
2017-07-12T13:07:28.219Z,370
2017-07-12T13:08:27.879Z,340
2017-07-12T13:09:28.170Z,345
2017-07-12T13:10:28.907Z,325
2017-07-12T13:11:28.311Z,330
2017-07-12T13:12:28.458Z,375
2017-07-12T13:13:28.384Z,415
2017-07-12T13:14:28.365Z,500
2017-07-12T13:15:28.039Z,490
2017-07-12T13:16:27.714Z,545
2017-07-12T13:17:27.707Z,655
2017-07-12T13:18:27.977Z,590
2017-07-12T13:19:27.650Z,615
2017-07-12T13:20:28.237Z,640
2017-07-12T13:21:27.931Z,680
2017-07-12T13:22:27.383Z,720
2017-07-12T13:23:26.957Z,670
2017-07-12T13:24:28.158Z,635
2017-07-12T13:25:27.828Z,745
2017-07-12T13:26:28.123Z,720
2017-07-12T13:27:27.786Z,870
2017-07-12T13:28:28.075Z,830
2017-07-12T13:29:27.780Z,745
2017-07-12T13:30:28.073Z,790
2017-07-12T13:31:28.010Z,905
2017-07-12T13:32:27.688Z,835
2017-07-12T13:33:28.045Z,785
2017-07-12T13:34:27.343Z,810
2017-07-12T13:35:28.029Z,785
2017-07-12T13:36:27.303Z,850
2017-07-12T13:37:27.892Z,825
2017-07-12T13:38:27.871Z,800
2017-07-12T13:39:27.853Z,775
2017-07-12T13:40:27.846Z,770
2017-07-12T13:41:27.811Z,930
2017-07-12T13:42:27.185Z,955
2017-07-12T13:43:27.776Z,1000
2017-07-12T13:44:27.550Z,955
2017-07-12T13:45:27.735Z,1025
2017-07-12T13:46:27.410Z,1015
2017-07-12T13:47:27.701Z,965
2017-07-12T13:48:27.682Z,1040
2017-07-12T13:49:26.745Z,1055
2017-07-12T13:50:27.391Z,860
2017-07-12T13:51:27.319Z,560
2017-07-12T13:52:27.610Z,405
2017-07-12T13:53:27.277Z,415
2017-07-12T13:54:27.750Z,485
2017-07-12T13:55:27.318Z,605
2017-07-12T13:56:27.527Z,730
2017-07-12T13:57:27.530Z,630
2017-07-12T13:58:27.211Z,465
2017-07-12T13:59:27.166Z,340
2017-07-12T14:00:26.537Z,305
2017-07-12T14:01:27.126Z,450
2017-07-12T14:02:27.410Z,620
2017-07-12T14:03:27.389Z,760
2017-07-12T14:04:27.373Z,955
2017-07-12T14:05:27.364Z,1210
2017-07-12T14:06:27.026Z,1150
2017-07-12T14:07:27.322Z,1075
2017-07-12T14:08:26.992Z,895
2017-07-12T14:09:27.013Z,735
2017-07-12T14:10:26.647Z,580
2017-07-12T14:11:26.939Z,655
2017-07-12T14:12:26.915Z,715
2017-07-12T14:13:26.591Z,835